Time;durP1;ratioP1;P1;durP2;ratioP2;P2;SDS_P1;SDS_P2;PMS_P1;PMS_P2;Temp;Humidity;BMP_temperature;BMP_pressure;BME280_temperature;BME280_humidity;BME280_pressure;Samples;Min_cycle;Max_cycle;Signal;HPM_P1;HPM_P2
2021/04/20 00:02:09;;;;;;;47.30;42.30;;;5.90;94.40;;;;;;5093626;28;20286;-77
2021/04/20 00:04:36;;;;;;;47.10;42.00;;;5.90;94.50;;;;;;5093657;28;20286;-77
2021/04/20 00:07:03;;;;;;;56.50;42.70;;;5.80;94.70;;;;;;5093127;28;20221;-78
2021/04/20 00:09:30;;;;;;;46.92;41.83;;;5.80;94.90;;;;;;5093650;28;20191;-77
2021/04/20 00:11:56;;;;;;;48.38;41.45;;;5.80;95.00;;;;;;5093595;28;20281;-78
2021/04/20 00:14:23;;;;;;;46.38;41.47;;;5.70;95.40;;;;;;5093487;28;20231;-77
2021/04/20 00:16:50;;;;;;;46.72;40.25;;;5.70;95.30;;;;;;5092829;28;20294;-78
2021/04/20 00:19:17;;;;;;;45.85;40.55;;;5.70;95.20;;;;;;5092811;27;20222;-78
2021/04/20 00:21:44;;;;;;;43.30;38.60;;;5.70;94.90;;;;;;5093304;28;20215;-77
2021/04/20 00:24:10;;;;;;;45.17;40.67;;;5.80;94.40;;;;;;5093214;28;20603;-77
2021/04/20 00:26:37;;;;;;;42.30;38.08;;;5.60;94.40;;;;;;5092754;28;20207;-77
2021/04/20 00:29:03;;;;;;;40.90;36.60;;;5.60;94.50;;;;;;5093131;28;20192;-78
2021/04/20 00:31:30;;;;;;;46.83;40.92;;;5.60;94.50;;;;;;5093160;28;20832;-78
2021/04/20 00:33:57;;;;;;;43.05;38.58;;;5.60;94.30;;;;;;5093342;28;20287;-78
2021/04/20 00:36:23;;;;;;;44.97;40.35;;;5.50;94.40;;;;;;5092607;28;20195;-77
2021/04/20 00:38:50;;;;;;;46.47;41.53;;;5.50;94.50;;;;;;5092873;28;20215;-77
2021/04/20 00:41:16;;;;;;;43.65;38.88;;;5.50;94.70;;;;;;5093222;28;20302;-76
2021/04/20 00:43:44;;;;;;;45.67;40.88;;;5.50;94.80;;;;;;5092946;28;20246;-77
2021/04/20 00:46:12;;;;;;;44.25;38.78;;;5.50;94.70;;;;;;5092393;28;20205;-77
2021/04/20 00:48:39;;;;;;;45.20;40.40;;;5.50;94.50;;;;;;5092853;28;20202;-78
2021/04/20 00:51:06;;;;;;;44.25;39.55;;;5.50;94.60;;;;;;5092642;28;20261;-77
2021/04/20 00:53:34;;;;;;;43.95;39.22;;;5.40;94.70;;;;;;5092912;28;20244;-78
2021/04/20 00:56:00;;;;;;;47.42;40.00;;;5.40;94.80;;;;;;5091934;28;20203;-77
2021/04/20 00:58:27;;;;;;;47.83;41.13;;;5.40;94.80;;;;;;5092525;28;20700;-77
2021/04/20 01:00:54;;;;;;;46.25;41.35;;;5.40;94.60;;;;;;5092630;28;20310;-77
2021/04/20 01:03:20;;;;;;;45.70;40.28;;;5.40;94.50;;;;;;5092886;28;20667;-77
2021/04/20 01:05:48;;;;;;;46.42;41.45;;;5.40;94.50;;;;;;5092016;28;20198;-77
2021/04/20 01:08:16;;;;;;;45.55;40.65;;;5.30;94.50;;;;;;5092768;28;20187;-77
2021/04/20 01:10:45;;;;;;;48.97;41.33;;;5.30;94.50;;;;;;5092376;28;20221;-77
2021/04/20 01:13:13;;;;;;;45.63;40.80;;;5.30;95.80;;;;;;5092539;28;20289;-77
2021/04/20 01:15:43;;;;;;;50.08;39.95;;;5.20;95.90;;;;;;5091878;28;20202;-77
2021/04/20 01:18:12;;;;;;;40.42;36.28;;;5.10;95.50;;;;;;5092016;28;20275;-77
2021/04/20 01:20:41;;;;;;;42.45;38.15;;;5.20;95.50;;;;;;5092461;28;20731;-77
2021/04/20 01:23:11;;;;;;;43.30;38.83;;;5.10;95.10;;;;;;5092158;28;20230;-77
2021/04/20 01:25:39;;;;;;;43.70;38.67;;;5.10;95.30;;;;;;5091869;28;20671;-77
2021/04/20 01:28:05;;;;;;;44.15;39.65;;;5.10;95.20;;;;;;5092524;28;20195;-77
2021/04/20 01:30:34;;;;;;;42.05;37.67;;;5.00;94.90;;;;;;5092210;28;20227;-77
2021/04/20 01:33:03;;;;;;;44.85;40.03;;;5.00;94.90;;;;;;5092337;28;20218;-77
2021/04/20 01:35:30;;;;;;;41.47;37.08;;;5.00;95.10;;;;;;5091899;28;20293;-76
2021/04/20 01:37:57;;;;;;;42.30;37.85;;;5.10;94.80;;;;;;5092136;28;20298;-77
2021/04/20 01:40:24;;;;;;;44.30;39.63;;;5.00;94.50;;;;;;5092088;28;20219;-77
2021/04/20 01:42:52;;;;;;;44.95;37.92;;;5.00;94.70;;;;;;5092231;28;20195;-78
2021/04/20 01:45:21;;;;;;;42.05;37.55;;;4.90;94.90;;;;;;5092032;28;20222;-76
2021/04/20 01:47:49;;;;;;;44.42;39.38;;;4.90;95.00;;;;;;5091654;28;20246;-77
2021/04/20 01:50:16;;;;;;;43.85;38.72;;;4.90;95.00;;;;;;5091983;28;20215;-77
2021/04/20 01:52:43;;;;;;;43.05;38.72;;;4.80;95.10;;;;;;5092006;28;20199;-77
2021/04/20 01:55:11;;;;;;;42.72;37.83;;;4.80;95.10;;;;;;5092037;28;20622;-77
2021/04/20 01:57:39;;;;;;;40.00;35.75;;;4.80;95.20;;;;;;5091537;28;20223;-78
2021/04/20 02:00:10;;;;;;;44.95;39.63;;;4.90;94.90;;;;;;5092042;28;20215;-78
2021/04/20 02:02:36;;;;;;;43.75;39.25;;;4.90;94.90;;;;;;5092323;28;20203;-77
2021/04/20 02:05:04;;;;;;;44.58;38.72;;;4.90;94.90;;;;;;5091925;28;20583;-77
2021/04/20 02:07:31;;;;;;;45.42;40.78;;;4.90;95.00;;;;;;5091948;28;20299;-77
2021/04/20 02:09:59;;;;;;;48.22;41.08;;;4.90;95.10;;;;;;5095939;28;20264;-78
2021/04/20 02:12:25;;;;;;;45.45;40.65;;;5.00;95.10;;;;;;5095825;28;20260;-77
2021/04/20 02:14:54;;;;;;;42.58;37.97;;;5.20;94.20;;;;;;5096031;28;20238;-77
2021/04/20 02:17:23;;;;;;;47.00;38.95;;;5.20;93.80;;;;;;5095042;28;20286;-77
2021/04/20 02:19:50;;;;;;;46.15;39.20;;;5.20;93.40;;;;;;5095096;28;20755;-77
2021/04/20 02:22:17;;;;;;;46.33;39.67;;;5.20;93.30;;;;;;5096042;28;20552;-78
2021/04/20 02:24:44;;;;;;;41.38;37.00;;;5.20;93.20;;;;;;5095651;28;20199;-77
2021/04/20 02:27:12;;;;;;;42.28;38.17;;;5.20;94.00;;;;;;5094967;28;20232;-77
2021/04/20 02:29:38;;;;;;;38.90;35.00;;;5.10;95.20;;;;;;5095662;28;20306;-77
2021/04/20 02:32:06;;;;;;;39.75;35.67;;;5.20;94.40;;;;;;5095596;28;20206;-78
2021/04/20 02:34:34;;;;;;;42.65;38.47;;;5.10;94.00;;;;;;5095585;28;20192;-77
2021/04/20 02:37:00;;;;;;;50.90;38.45;;;5.00;94.00;;;;;;5095221;28;20197;-78
2021/04/20 02:39:27;;;;;;;242.77;57.33;;;5.00;94.80;;;;;;5095774;28;20255;-77
2021/04/20 02:41:55;;;;;;;1999.90;721.08;;;5.00;98.00;;;;;;5095862;28;20196;-77
2021/04/20 02:44:21;;;;;;;52.17;40.20;;;5.10;99.90;;;;;;5095841;28;20668;-77
2021/04/20 02:46:48;;;;;;;48.70;40.30;;;5.10;99.90;;;;;;5094988;28;20306;-77
2021/04/20 02:49:15;;;;;;;51.30;40.88;;;5.20;99.60;;;;;;5095955;28;20191;-78
2021/04/20 02:51:44;;;;;;;58.70;44.38;;;5.30;98.50;;;;;;5095385;28;20310;-77
2021/04/20 02:54:11;;;;;;;52.15;41.33;;;5.30;98.30;;;;;;5095249;28;20203;-77
2021/04/20 02:56:39;;;;;;;46.70;40.10;;;5.50;97.40;;;;;;5094508;28;20201;-78
2021/04/20 02:59:10;;;;;;;51.75;41.10;;;5.40;97.80;;;;;;5095001;28;20227;-77
2021/04/20 03:01:41;;;;;;;50.97;41.75;;;5.50;97.90;;;;;;5094774;28;20219;-77
2021/04/20 03:04:12;;;;;;;49.10;41.35;;;5.50;97.10;;;;;;5095038;28;20596;-78
2021/04/20 03:06:41;;;;;;;45.63;40.85;;;5.60;96.40;;;;;;5094465;28;20195;-77
2021/04/20 03:09:08;;;;;;;52.67;44.40;;;5.60;96.20;;;;;;5094886;28;20645;-77
2021/04/20 03:11:37;;;;;;;1876.07;275.80;;;5.70;95.90;;;;;;5094653;28;20225;-78
2021/04/20 03:14:05;;;;;;;117.28;50.05;;;5.80;95.90;;;;;;5094793;28;20199;-77
2021/04/20 03:16:32;;;;;;;57.30;44.78;;;5.70;96.90;;;;;;5094246;28;20288;-77
2021/04/20 03:19:00;;;;;;;49.28;43.92;;;5.70;97.90;;;;;;5094132;28;20700;-78
2021/04/20 03:21:27;;;;;;;54.72;43.17;;;5.70;97.50;;;;;;5094717;28;20715;-78
2021/04/20 03:23:55;;;;;;;48.65;42.88;;;5.70;97.10;;;;;;5094228;28;20196;-76
2021/04/20 03:26:46;;;;;;;46.28;40.55;;;5.60;97.20;;;;;;5093837;28;20200;-78
2021/04/20 03:29:12;;;;;;;299.70;67.68;;;5.60;97.20;;;;;;5074199;28;20278;-77
2021/04/20 03:31:40;;;;;;;82.00;43.28;;;5.60;97.80;;;;;;5094475;28;20222;-77
2021/04/20 03:34:23;;;;;;;1999.90;460.80;;;5.70;98.30;;;;;;5094223;28;20207;-78
2021/04/20 03:36:54;;;;;;;744.80;101.72;;;5.70;99.90;;;;;;5093657;28;20205;-78
2021/04/20 03:39:22;;;;;;;44.22;39.40;;;5.70;99.90;;;;;;5094256;28;20250;-77
2021/04/20 03:41:53;;;;;;;44.97;39.80;;;5.80;99.60;;;;;;5094015;28;20250;-77
2021/04/20 03:44:25;;;;;;;43.75;39.05;;;5.80;98.40;;;;;;5094303;28;20207;-77
2021/04/20 03:46:58;;;;;;;45.47;40.88;;;5.80;97.80;;;;;;5093409;28;20211;-77
2021/04/20 03:49:28;;;;;;;44.03;39.22;;;5.70;97.10;;;;;;5094021;28;20278;-77
2021/04/20 03:51:56;;;;;;;43.45;38.85;;;5.60;97.40;;;;;;5094042;28;20203;-77
2021/04/20 03:54:25;;;;;;;45.88;41.08;;;5.60;98.00;;;;;;5093997;28;20195;-77
2021/04/20 03:56:55;;;;;;;40.25;35.88;;;5.70;97.70;;;;;;5093529;28;20653;-77
2021/04/20 03:59:25;;;;;;;127.32;45.92;;;5.70;98.30;;;;;;5093667;28;20271;-77
2021/04/20 04:01:52;;;;;;;42.00;37.35;;;5.50;98.10;;;;;;5093618;28;20676;-77
2021/04/20 04:04:23;;;;;;;41.40;37.30;;;5.50;99.90;;;;;;5093530;28;20199;-77
2021/04/20 04:06:50;;;;;;;39.47;35.63;;;5.40;99.20;;;;;;5093118;28;20200;-78
2021/04/20 04:09:19;;;;;;;41.03;37.30;;;5.40;99.00;;;;;;5093840;28;20200;-77
2021/04/20 04:11:51;;;;;;;42.45;38.25;;;5.30;98.00;;;;;;5093586;28;20227;-78
2021/04/20 04:14:21;;;;;;;50.30;41.47;;;5.40;97.70;;;;;;5093393;28;20235;-77
2021/04/20 04:16:49;;;;;;;42.42;38.05;;;5.30;97.00;;;;;;5092903;28;20192;-77
2021/04/20 04:19:17;;;;;;;39.03;35.22;;;5.30;96.80;;;;;;5093039;28;20226;-77
2021/04/20 04:21:52;;;;;;;216.95;52.42;;;5.30;96.70;;;;;;5093368;28;20254;-76
2021/04/20 04:24:19;;;;;;;1425.35;193.70;;;5.30;96.40;;;;;;5093033;28;20195;-77
2021/04/20 04:26:52;;;;;;;446.52;82.38;;;5.20;97.00;;;;;;5092523;28;20286;-78
2021/04/20 04:29:20;;;;;;;37.47;34.03;;;5.20;98.40;;;;;;5093290;28;20278;-77
2021/04/20 04:31:47;;;;;;;1930.18;345.25;;;5.20;97.50;;;;;;5092705;28;20219;-77
2021/04/20 04:34:16;;;;;;;41.20;36.97;;;5.10;99.50;;;;;;5093153;28;20768;-77
2021/04/20 04:36:44;;;;;;;42.38;38.17;;;5.10;98.50;;;;;;5092675;28;20283;-77
2021/04/20 04:39:12;;;;;;;40.17;36.25;;;5.00;97.90;;;;;;5092923;28;20215;-77
2021/04/20 04:41:39;;;;;;;39.83;35.90;;;5.10;97.50;;;;;;5092890;28;20222;-77
2021/04/20 04:44:06;;;;;;;98.00;39.53;;;5.10;96.80;;;;;;5093005;28;20286;-78
2021/04/20 04:46:33;;;;;;;164.45;47.42;;;5.00;96.60;;;;;;5092277;28;20195;-77
2021/04/20 04:49:01;;;;;;;673.55;107.90;;;5.00;96.90;;;;;;5092861;28;20195;-77
2021/04/20 04:51:28;;;;;;;787.13;118.38;;;5.10;97.30;;;;;;5092671;28;20242;-78
2021/04/20 04:53:56;;;;;;;40.45;36.35;;;5.10;98.40;;;;;;5092807;28;20202;-77
2021/04/20 04:56:24;;;;;;;42.65;38.70;;;5.00;98.20;;;;;;5092172;28;20286;-77
2021/04/20 04:58:53;;;;;;;40.40;36.40;;;5.10;97.90;;;;;;5092654;28;20687;-80
2021/04/20 05:01:21;;;;;;;39.83;36.25;;;5.20;97.10;;;;;;5092745;28;20222;-75
2021/04/20 05:03:47;;;;;;;77.65;40.13;;;5.30;96.30;;;;;;5092678;28;20601;-75
2021/04/20 05:06:14;;;;;;;43.33;38.60;;;5.30;96.30;;;;;;5092178;28;20249;-76
2021/04/20 05:08:41;;;;;;;38.47;34.88;;;5.30;98.40;;;;;;5092619;28;20332;-76
2021/04/20 05:11:08;;;;;;;40.67;36.85;;;5.30;98.60;;;;;;5092608;28;20215;-76
2021/04/20 05:13:35;;;;;;;471.83;77.32;;;5.40;97.60;;;;;;5092535;28;20278;-76
2021/04/20 05:16:05;;;;;;;39.72;36.03;;;5.40;97.40;;;;;;5091896;28;20201;-76
2021/04/20 05:18:35;;;;;;;39.58;35.80;;;5.40;96.40;;;;;;5091753;28;20219;-76
2021/04/20 05:21:01;;;;;;;37.70;34.22;;;5.40;96.30;;;;;;5092352;28;20865;-77
2021/04/20 05:23:28;;;;;;;38.85;35.40;;;5.40;95.30;;;;;;5092142;28;20296;-77
2021/04/20 05:25:55;;;;;;;40.40;36.75;;;5.40;95.10;;;;;;5091998;28;20277;-77
2021/04/20 05:28:22;;;;;;;38.60;35.00;;;5.50;95.40;;;;;;5092259;28;20211;-76
2021/04/20 05:30:49;;;;;;;287.67;59.85;;;5.50;95.40;;;;;;5092066;28;20689;-77
2021/04/20 05:33:15;;;;;;;40.38;36.70;;;5.50;96.60;;;;;;5092162;28;20728;-77
2021/04/20 05:35:43;;;;;;;88.07;38.83;;;5.50;97.20;;;;;;5091894;28;20294;-77
2021/04/20 05:38:09;;;;;;;39.55;35.60;;;5.60;99.90;;;;;;5092039;28;20199;-78
2021/04/20 05:40:38;;;;;;;38.78;35.25;;;5.70;98.70;;;;;;5092095;28;20731;-78
2021/04/20 05:43:06;;;;;;;40.70;36.90;;;5.80;97.40;;;;;;5093672;28;20221;-77
2021/04/20 05:45:33;;;;;;;41.88;38.05;;;5.90;96.00;;;;;;5095823;28;20656;-77
2021/04/20 05:48:00;;;;;;;40.47;36.63;;;6.00;95.00;;;;;;5096093;28;20206;-77
2021/04/20 05:50:30;;;;;;;39.13;35.63;;;6.10;94.80;;;;;;5096268;28;20272;-77
2021/04/20 05:52:58;;;;;;;257.67;56.63;;;6.40;93.70;;;;;;5096118;28;20205;-79
2021/04/20 05:55:24;;;;;;;38.95;35.60;;;6.50;93.40;;;;;;5096111;28;20279;-77
2021/04/20 05:57:53;;;;;;;38.92;35.55;;;6.50;93.50;;;;;;5095728;28;20282;-77
2021/04/20 06:00:21;;;;;;;39.72;35.95;;;6.50;93.00;;;;;;5095961;28;20265;-77
2021/04/20 06:02:50;;;;;;;41.50;36.00;;;6.60;94.60;;;;;;5095758;28;20209;-77
2021/04/20 06:05:21;;;;;;;431.70;78.25;;;6.70;92.90;;;;;;5096007;28;20282;-77
2021/04/20 06:07:49;;;;;;;39.10;35.40;;;6.80;93.40;;;;;;5095734;28;20289;-78
2021/04/20 06:10:18;;;;;;;38.80;35.13;;;6.80;93.20;;;;;;5095873;28;20252;-78
2021/04/20 06:12:45;;;;;;;39.95;36.35;;;6.90;91.60;;;;;;5095829;28;20248;-77
2021/04/20 06:15:14;;;;;;;43.50;39.45;;;7.00;91.70;;;;;;5095773;28;20241;-78
2021/04/20 06:17:40;;;;;;;41.10;37.50;;;7.00;90.50;;;;;;5095518;28;20282;-78
2021/04/20 06:20:10;;;;;;;42.08;37.83;;;7.00;90.20;;;;;;5095693;28;20308;-78
2021/04/20 06:22:37;;;;;;;74.75;37.20;;;7.00;90.30;;;;;;5095720;28;20193;-78
2021/04/20 06:25:05;;;;;;;179.13;43.85;;;7.20;94.00;;;;;;5095552;28;20199;-78
2021/04/20 06:27:33;;;;;;;42.08;35.83;;;7.20;93.00;;;;;;5094960;28;20294;-77
2021/04/20 06:29:59;;;;;;;37.88;34.53;;;7.30;91.80;;;;;;5096360;28;20211;-77
2021/04/20 06:32:26;;;;;;;58.00;46.60;;;7.40;90.30;;;;;;5096670;28;20286;-77
2021/04/20 06:34:53;;;;;;;41.40;37.80;;;7.40;89.60;;;;;;5096187;28;20209;-76
2021/04/20 06:37:20;;;;;;;40.75;37.05;;;7.60;89.40;;;;;;5095147;28;20222;-77
2021/04/20 06:39:46;;;;;;;43.17;39.28;;;7.90;88.30;;;;;;5095237;28;20306;-76
2021/04/20 06:42:19;;;;;;;46.10;41.90;;;8.10;88.30;;;;;;5095385;28;20285;-76
2021/04/20 06:44:52;;;;;;;46.13;41.97;;;8.20;88.30;;;;;;5095348;28;20199;-76
2021/04/20 06:47:23;;;;;;;43.60;39.60;;;8.40;87.60;;;;;;5094686;28;20281;-77
2021/04/20 06:49:54;;;;;;;41.70;37.70;;;8.50;92.40;;;;;;5095208;28;20591;-77
2021/04/20 06:52:27;;;;;;;43.95;39.50;;;8.50;89.20;;;;;;5095266;28;20676;-77
2021/04/20 06:55:01;;;;;;;44.10;39.90;;;8.70;88.50;;;;;;5094584;28;20206;-78
2021/04/20 06:57:36;;;;;;;44.45;40.65;;;8.70;86.90;;;;;;5094455;28;20293;-77
2021/04/20 07:00:10;;;;;;;42.45;38.75;;;8.70;87.40;;;;;;5095016;28;20691;-78
2021/04/20 07:02:46;;;;;;;43.42;39.60;;;8.80;87.80;;;;;;5095017;28;20248;-77
2021/04/20 07:05:21;;;;;;;44.63;40.30;;;8.90;86.90;;;;;;5094877;28;20201;-77
2021/04/20 07:08:08;;;;;;;43.92;39.97;;;9.10;86.40;;;;;;5094589;28;20205;-77
2021/04/20 07:10:37;;;;;;;48.38;43.80;;;9.10;85.40;;;;;;5094956;28;20238;-77
2021/04/20 07:13:07;;;;;;;47.47;43.08;;;9.10;85.40;;;;;;5094903;28;20635;-77
2021/04/20 07:15:37;;;;;;;47.33;42.88;;;9.20;84.80;;;;;;5094269;28;20226;-76
2021/04/20 07:18:43;;;;;;;45.83;41.67;;;9.30;84.90;;;;;;5094399;28;20218;-77
2021/04/20 07:21:22;;;;;;;46.55;41.95;;;9.50;84.40;;;;;;5095027;28;20250;-77
2021/04/20 07:24:14;;;;;;;46.83;42.58;;;9.70;83.90;;;;;;5094440;28;20625;-78
2021/04/20 07:27:05;;;;;;;47.13;43.08;;;9.80;84.20;;;;;;5094446;28;20264;-77
2021/04/20 07:29:38;;;;;;;50.80;46.25;;;10.00;83.30;;;;;;5094699;28;20192;-77
2021/04/20 07:32:15;;;;;;;49.05;44.47;;;9.90;84.60;;;;;;5094717;28;20284;-77
2021/04/20 07:34:44;;;;;;;51.35;46.80;;;10.00;85.50;;;;;;5094665;28;20199;-77
2021/04/20 07:37:30;;;;;;;46.37;41.87;;;10.10;84.00;;;;;;5094027;28;20217;-77
2021/04/20 07:40:08;;;;;;;47.37;43.40;;;10.30;84.40;;;;;;5094208;28;20564;-77
2021/04/20 07:42:47;;;;;;;51.40;46.20;;;10.60;80.90;;;;;;5094179;28;20590;-76
2021/04/20 07:45:19;;;;;;;49.78;44.78;;;10.60;80.10;;;;;;5094506;28;20815;-77
2021/04/20 07:47:52;;;;;;;47.38;42.92;;;10.70;79.80;;;;;;5094199;28;20207;-77
2021/04/20 07:50:22;;;;;;;52.85;47.75;;;10.70;79.80;;;;;;5094528;28;20298;-77
2021/04/20 07:52:56;;;;;;;46.08;42.17;;;10.50;80.50;;;;;;5094140;28;20282;-77
2021/04/20 07:55:29;;;;;;;48.93;44.30;;;10.50;80.80;;;;;;5093941;28;20206;-76
2021/04/20 07:58:01;;;;;;;49.80;44.93;;;10.50;80.80;;;;;;5094232;28;20460;-77
2021/04/20 08:00:33;;;;;;;47.78;43.45;;;10.40;80.80;;;;;;5093970;28;20481;-77
2021/04/20 08:03:11;;;;;;;46.95;42.65;;;10.40;81.00;;;;;;5094181;28;20195;-77
2021/04/20 08:05:42;;;;;;;47.03;42.70;;;10.40;81.20;;;;;;5092510;28;20206;-77
2021/04/20 08:08:13;;;;;;;45.90;42.10;;;10.60;81.60;;;;;;5094105;28;20227;-77
2021/04/20 08:10:46;;;;;;;47.87;43.10;;;10.80;81.20;;;;;;5093808;28;20530;-77
2021/04/20 08:13:18;;;;;;;46.63;42.43;;;11.10;80.90;;;;;;5094022;28;20455;-77
2021/04/20 08:15:50;;;;;;;47.80;43.67;;;11.30;80.30;;;;;;5093062;28;20962;-77
2021/04/20 08:18:24;;;;;;;45.70;41.80;;;11.40;79.60;;;;;;5093275;28;20688;-77
2021/04/20 08:20:52;;;;;;;49.40;45.10;;;11.60;79.70;;;;;;5093690;28;20252;-77
2021/04/20 08:23:20;;;;;;;47.27;43.17;;;11.70;78.40;;;;;;5093385;28;20445;-77
2021/04/20 08:25:54;;;;;;;48.20;44.27;;;11.80;77.80;;;;;;5092882;28;20457;-76
2021/04/20 08:28:25;;;;;;;47.37;43.37;;;11.90;77.40;;;;;;5093821;28;20536;-77
2021/04/20 08:30:58;;;;;;;47.97;43.70;;;11.90;77.20;;;;;;5093369;28;20564;-77
2021/04/20 08:33:29;;;;;;;48.00;44.07;;;12.00;76.50;;;;;;5093748;28;21274;-76
2021/04/20 08:35:59;;;;;;;46.23;42.47;;;12.00;76.50;;;;;;5093067;28;20453;-77
2021/04/20 08:38:48;;;;;;;47.80;43.70;;;12.20;76.10;;;;;;5093048;28;20461;-77
2021/04/20 08:41:21;;;;;;;48.90;44.10;;;12.30;75.50;;;;;;5093010;28;20469;-77
2021/04/20 08:44:10;;;;;;;46.43;42.53;;;12.40;75.30;;;;;;5093075;28;20848;-77
2021/04/20 08:46:47;;;;;;;50.93;46.87;;;12.40;74.60;;;;;;5091747;28;20522;-77
2021/04/20 08:49:24;;;;;;;46.00;42.47;;;12.50;74.80;;;;;;5093034;28;20471;-77
2021/04/20 08:51:54;;;;;;;46.00;42.40;;;12.70;74.60;;;;;;5092629;28;20473;-77
2021/04/20 08:54:36;;;;;;;48.10;44.10;;;12.80;74.00;;;;;;5092934;28;20453;-77
2021/04/20 08:57:14;;;;;;;46.20;42.50;;;13.00;73.40;;;;;;5092308;28;20448;-78
2021/04/20 09:00:04;;;;;;;48.10;44.17;;;13.20;72.70;;;;;;5092522;28;20476;-77
2021/04/20 09:02:41;;;;;;;50.20;46.00;;;13.20;72.50;;;;;;5092742;28;21132;-77
2021/04/20 09:05:21;;;;;;;49.50;44.80;;;13.30;71.90;;;;;;5092735;28;20490;-78
2021/04/20 09:07:56;;;;;;;49.53;44.83;;;13.20;71.70;;;;;;5092276;28;20455;-77
2021/04/20 09:10:31;;;;;;;49.20;44.97;;;13.10;71.60;;;;;;5092547;28;20557;-77
2021/04/20 09:13:04;;;;;;;48.37;44.37;;;12.90;72.00;;;;;;5092650;28;20483;-77
2021/04/20 09:15:33;;;;;;;50.17;45.80;;;13.00;71.50;;;;;;5091946;28;20536;-77
2021/04/20 09:18:08;;;;;;;52.17;47.77;;;13.10;71.50;;;;;;5092176;28;20453;-78
2021/04/20 09:20:43;;;;;;;52.67;48.07;;;13.10;71.60;;;;;;5092399;28;20500;-77
2021/04/20 09:23:21;;;;;;;49.37;45.13;;;12.90;72.00;;;;;;5092557;28;20502;-77
2021/04/20 09:25:57;;;;;;;50.73;45.67;;;12.80;72.00;;;;;;5091751;28;20823;-78
2021/04/20 09:28:29;;;;;;;50.43;45.20;;;12.80;72.00;;;;;;5092252;28;20463;-77
2021/04/20 09:30:58;;;;;;;53.23;47.60;;;13.10;71.40;;;;;;5092266;28;20503;-78
2021/04/20 09:33:36;;;;;;;51.23;46.63;;;13.10;70.80;;;;;;5092334;28;20445;-77
2021/04/20 09:36:04;;;;;;;46.50;42.37;;;13.10;70.20;;;;;;5092129;28;20520;-78
2021/04/20 09:38:32;;;;;;;47.40;43.00;;;13.40;69.10;;;;;;5092302;28;20477;-77
2021/04/20 09:41:00;;;;;;;46.83;42.40;;;13.40;68.30;;;;;;5092319;28;20906;-79
2021/04/20 09:43:32;;;;;;;46.20;42.60;;;13.50;68.00;;;;;;5092111;28;20453;-77
2021/04/20 09:46:04;;;;;;;46.93;42.93;;;13.50;67.90;;;;;;5091681;28;20830;-77
2021/04/20 09:48:41;;;;;;;44.23;40.43;;;13.60;67.80;;;;;;5092027;28;21004;-77
2021/04/20 09:51:13;;;;;;;46.97;42.67;;;13.60;67.40;;;;;;5092047;28;20477;-77
2021/04/20 09:53:53;;;;;;;42.97;39.40;;;13.80;67.10;;;;;;5092102;28;20499;-77
2021/04/20 09:56:22;;;;;;;45.47;41.87;;;13.90;66.20;;;;;;5091644;28;20456;-77
2021/04/20 09:58:49;;;;;;;44.53;40.73;;;13.90;66.40;;;;;;5091878;28;20477;-77
2021/04/20 10:01:45;;;;;;;48.70;44.10;;;13.90;65.60;;;;;;5092305;28;20526;-77
2021/04/20 10:04:13;;;;;;;44.47;40.87;;;13.90;66.20;;;;;;5090050;28;20449;-76
2021/04/20 10:07:12;;;;;;;43.53;40.23;;;14.00;65.80;;;;;;5091200;28;20449;-77
2021/04/20 10:09:46;;;;;;;43.37;39.90;;;13.90;65.30;;;;;;5058237;28;20445;-77
2021/04/20 10:12:33;;;;;;;42.10;38.73;;;14.00;65.80;;;;;;5091984;28;20440;-77
2021/04/20 10:15:14;;;;;;;42.20;38.57;;;14.10;65.40;;;;;;5091717;28;20498;-77
2021/04/20 10:17:46;;;;;;;43.87;40.37;;;14.20;65.30;;;;;;5091417;28;20449;-77
2021/04/20 10:20:20;;;;;;;43.17;39.53;;;14.30;63.90;;;;;;5091049;28;20501;-77
2021/04/20 10:22:57;;;;;;;42.13;38.93;;;14.40;63.40;;;;;;5091681;28;20441;-76
2021/04/20 10:25:34;;;;;;;42.33;39.13;;;14.70;62.30;;;;;;5091381;28;20457;-77
2021/04/20 10:28:08;;;;;;;43.57;40.10;;;14.50;62.10;;;;;;5091875;28;20552;-76
2021/04/20 10:30:41;;;;;;;41.30;38.10;;;14.60;62.20;;;;;;5095690;28;20465;-77
2021/04/20 10:33:10;;;;;;;41.53;38.13;;;14.60;62.20;;;;;;5095422;28;21012;-77
2021/04/20 10:35:38;;;;;;;41.60;38.50;;;14.50;62.90;;;;;;5095022;28;20946;-77
2021/04/20 10:38:13;;;;;;;41.80;38.37;;;14.60;62.70;;;;;;5095444;28;20453;-76
2021/04/20 10:40:42;;;;;;;40.40;37.40;;;14.70;62.50;;;;;;5095382;28;20480;-77
2021/04/20 10:43:11;;;;;;;39.77;36.87;;;14.90;62.20;;;;;;5095233;28;21515;-76
2021/04/20 10:45:38;;;;;;;39.50;36.60;;;15.20;61.30;;;;;;5094911;28;20526;-76
2021/04/20 10:48:06;;;;;;;38.60;35.23;;;15.40;59.50;;;;;;5094977;28;20518;-76
2021/04/20 10:50:35;;;;;;;39.43;36.53;;;15.40;60.20;;;;;;5095149;28;20473;-77
2021/04/20 10:53:06;;;;;;;37.57;34.77;;;15.70;58.80;;;;;;5095059;28;20683;-76
2021/04/20 10:55:36;;;;;;;39.60;36.43;;;15.80;58.00;;;;;;5094695;28;20544;-76
2021/04/20 10:58:05;;;;;;;40.17;37.27;;;15.80;58.30;;;;;;5095275;28;21020;-77
2021/04/20 11:00:33;;;;;;;39.50;36.50;;;15.90;59.50;;;;;;5094858;28;20485;-76
2021/04/20 11:03:01;;;;;;;40.00;36.80;;;16.10;58.80;;;;;;5094963;28;20489;-77
2021/04/20 11:05:30;;;;;;;39.17;36.23;;;16.40;59.80;;;;;;5094305;28;20449;-77
2021/04/20 11:07:58;;;;;;;38.33;35.33;;;16.50;57.80;;;;;;5094889;28;20942;-76
2021/04/20 11:10:27;;;;;;;40.23;37.17;;;16.70;56.70;;;;;;5094766;28;20469;-76
2021/04/20 11:12:55;;;;;;;39.63;36.27;;;16.70;58.40;;;;;;5094729;28;20446;-77
2021/04/20 11:15:23;;;;;;;38.33;35.53;;;16.60;55.90;;;;;;5094299;28;20456;-76
2021/04/20 11:18:01;;;;;;;39.20;36.33;;;16.50;56.20;;;;;;5094503;28;20536;-76
2021/04/20 11:20:32;;;;;;;38.43;35.73;;;16.40;55.80;;;;;;5094300;28;20623;-76
2021/04/20 11:23:12;;;;;;;39.57;36.50;;;16.20;56.50;;;;;;5094818;28;20528;-77
2021/04/20 11:25:47;;;;;;;40.20;37.30;;;16.30;56.80;;;;;;5093906;28;20988;-77
2021/04/20 11:28:19;;;;;;;36.50;33.90;;;16.40;59.00;;;;;;5094587;28;20496;-76
2021/04/20 11:30:54;;;;;;;37.73;35.10;;;16.60;57.50;;;;;;5094530;28;20469;-77
2021/04/20 11:33:27;;;;;;;38.60;35.70;;;17.00;55.90;;;;;;5094559;28;20532;-76
2021/04/20 11:35:58;;;;;;;37.73;35.00;;;17.30;54.70;;;;;;5095000;28;20460;-77
2021/04/20 11:38:25;;;;;;;37.43;34.67;;;17.20;53.60;;;;;;5096773;28;20453;-77
2021/04/20 11:40:59;;;;;;;37.63;34.73;;;16.90;54.10;;;;;;5092909;28;20483;-76
2021/04/20 11:43:28;;;;;;;37.83;34.67;;;17.00;54.10;;;;;;5094130;28;20456;-76
2021/04/20 11:45:57;;;;;;;38.83;35.90;;;17.00;54.10;;;;;;5093646;28;20453;-76
2021/04/20 11:48:30;;;;;;;37.73;34.80;;;17.20;53.90;;;;;;5093961;28;20522;-76
2021/04/20 11:50:58;;;;;;;37.13;34.53;;;17.30;53.40;;;;;;5093877;28;20987;-76
2021/04/20 11:53:26;;;;;;;36.10;33.43;;;17.50;53.10;;;;;;5094001;28;20882;-77
2021/04/20 11:55:57;;;;;;;36.47;33.90;;;17.40;53.20;;;;;;5093319;28;20449;-76
2021/04/20 11:58:30;;;;;;;36.70;34.13;;;17.50;53.20;;;;;;5093891;28;20457;-77
2021/04/20 12:01:01;;;;;;;36.17;33.57;;;17.60;52.30;;;;;;5093778;28;20487;-77
2021/04/20 12:03:30;;;;;;;38.57;35.60;;;17.60;51.70;;;;;;5093768;28;20548;-78
2021/04/20 12:05:59;;;;;;;35.27;32.80;;;17.70;51.30;;;;;;5093267;28;20454;-77
2021/04/20 12:08:31;;;;;;;35.37;32.83;;;17.50;50.70;;;;;;5093701;28;20826;-77
2021/04/20 12:10:59;;;;;;;36.70;34.10;;;17.20;51.90;;;;;;5093612;28;20564;-79
2021/04/20 12:13:30;;;;;;;37.10;34.60;;;17.00;52.00;;;;;;5093627;28;20449;-77
2021/04/20 12:15:59;;;;;;;34.70;32.37;;;16.60;52.90;;;;;;5092977;28;20535;-77
2021/04/20 12:18:29;;;;;;;35.67;33.23;;;16.50;52.90;;;;;;5093028;28;20457;-77
2021/04/20 12:21:00;;;;;;;35.17;32.63;;;16.50;53.10;;;;;;5093393;28;20481;-77
2021/04/20 12:23:28;;;;;;;36.30;33.50;;;16.40;53.00;;;;;;5093347;28;20457;-77
2021/04/20 12:25:55;;;;;;;34.47;32.13;;;16.50;53.50;;;;;;5092491;28;20465;-77
2021/04/20 12:28:23;;;;;;;34.17;31.80;;;16.60;52.50;;;;;;5093448;28;20540;-77
2021/04/20 12:30:50;;;;;;;33.60;31.30;;;16.90;51.80;;;;;;5093171;28;20465;-77
2021/04/20 12:33:22;;;;;;;33.93;31.70;;;16.90;51.70;;;;;;5093383;28;20485;-77
2021/04/20 12:35:49;;;;;;;33.07;30.67;;;17.10;51.50;;;;;;5092581;28;20487;-77
2021/04/20 12:38:20;;;;;;;35.43;32.93;;;17.10;51.20;;;;;;5093144;28;21016;-77
2021/04/20 12:40:52;;;;;;;36.23;33.67;;;16.90;51.60;;;;;;5092863;28;20535;-79
2021/04/20 12:43:20;;;;;;;34.20;31.90;;;16.90;51.90;;;;;;5093086;28;20548;-77
2021/04/20 12:45:48;;;;;;;33.67;31.37;;;17.20;51.30;;;;;;5092483;28;20519;-77
2021/04/20 12:48:17;;;;;;;34.50;32.27;;;17.40;51.20;;;;;;5092700;28;20942;-77